Reeds Cross Roads, North Carolina
Current Conditions -  °F | °C
As of 1:35 PM on Thursday 23 Oct 2014 (Local Time) from KEXX Reporting Station
Clear Clear  
Wind Chill: 64°   Ceiling: Unl
Heat Index: 64°   Visibility: 10mi
Dew Point: 40°   Wind: 7mph
Humidity: 41%   Direction: 290°WNW
Pressure: 30.02"   Gusts: NA
Location:  35.7974°N, 80.2541°W
Report Text: KEXX 231735Z AUTO 29006KT 250V320 10SM CLR 18/04 A3002 RMK AO2 T01760042
Loading
Personal Weather Stations






























Interactive Weather Map
Tropical Storm Tracking
New forecast layout! Learn more

10-Day Weather Forecast

Advertisements
Track Severe Weather on mobile